createdAt,value
2022-11-10T00:01:11.157Z,6.10
2022-11-10T00:03:40.132Z,5.23
2022-11-10T00:06:09.154Z,5.18
2022-11-10T00:08:36.312Z,5.60
2022-11-10T00:11:07.650Z,4.90
2022-11-10T00:14:00.227Z,6.25
2022-11-10T00:16:45.721Z,5.17
2022-11-10T00:19:12.599Z,5.53
2022-11-10T00:21:39.474Z,5.93
2022-11-10T00:24:06.656Z,5.30
2022-11-10T00:26:33.545Z,6.35
2022-11-10T00:29:00.460Z,5.47
2022-11-10T00:31:28.405Z,5.60
2022-11-10T00:33:55.596Z,5.40
2022-11-10T00:36:22.682Z,5.22
2022-11-10T00:38:52.897Z,6.13
2022-11-10T00:41:20.501Z,5.53
2022-11-10T00:43:47.815Z,5.63
2022-11-10T00:46:15.758Z,5.45
2022-11-10T00:48:42.848Z,6.20
2022-11-10T00:51:22.645Z,5.97
2022-11-10T00:53:49.948Z,6.10
2022-11-10T00:56:17.159Z,5.90
2022-11-10T00:58:44.441Z,6.15
2022-11-10T01:01:12.684Z,5.93
2022-11-10T01:03:39.782Z,5.50
2022-11-10T01:06:12.487Z,6.33
2022-11-10T01:08:40.953Z,6.22
2022-11-10T01:11:19.617Z,5.95
2022-11-10T01:13:46.973Z,6.97
2022-11-10T01:16:21.269Z,6.88
2022-11-10T01:18:54.023Z,6.57
2022-11-10T01:21:22.420Z,6.97
2022-11-10T01:23:49.644Z,5.88
2022-11-10T01:26:17.707Z,6.10
2022-11-10T01:28:45.811Z,5.80
2022-11-10T01:31:19.630Z,6.13
2022-11-10T01:33:47.035Z,5.93
2022-11-10T01:36:14.344Z,6.10
2022-11-10T01:38:42.966Z,7.57
2022-11-10T01:41:13.183Z,5.88
2022-11-10T01:43:40.551Z,6.60
2022-11-10T01:46:13.141Z,7.20
2022-11-10T01:48:55.385Z,7.32
2022-11-10T01:51:38.039Z,7.25
2022-11-10T01:54:14.453Z,7.13
2022-11-10T01:56:47.788Z,7.17
2022-11-10T01:59:21.988Z,8.02
2022-11-10T02:01:50.694Z,7.43
2022-11-10T02:04:19.757Z,7.63
2022-11-10T02:06:49.142Z,8.40
2022-11-10T02:09:16.966Z,7.97
2022-11-10T02:11:44.905Z,7.95
2022-11-10T02:14:13.199Z,7.70
2022-11-10T02:16:40.663Z,8.30
2022-11-10T02:19:27.329Z,7.78
2022-11-10T02:21:55.248Z,7.20
2022-11-10T02:24:22.395Z,6.93
2022-11-10T02:26:54.571Z,7.45
2022-11-10T02:29:22.114Z,7.22
2022-11-10T02:31:49.028Z,7.30
2022-11-10T02:34:16.031Z,8.33
2022-11-10T02:36:42.946Z,6.80
2022-11-10T02:39:09.864Z,7.38
2022-11-10T02:41:36.799Z,7.45
2022-11-10T02:44:05.296Z,8.23
2022-11-10T02:46:32.171Z,7.53
2022-11-10T02:48:59.211Z,7.40
2022-11-10T02:51:26.122Z,8.07
2022-11-10T02:53:52.996Z,7.85
2022-11-10T02:56:19.891Z,7.45
2022-11-10T02:58:46.788Z,8.20
2022-11-10T03:01:13.845Z,7.47
2022-11-10T03:03:40.799Z,7.60
2022-11-10T03:06:07.738Z,6.57
2022-11-10T03:08:34.717Z,8.32
2022-11-10T03:11:01.644Z,7.83
2022-11-10T03:13:40.319Z,8.20
2022-11-10T03:16:15.752Z,8.80
2022-11-10T03:18:42.841Z,8.18
2022-11-10T03:21:10.177Z,8.57
2022-11-10T03:23:37.298Z,7.57
2022-11-10T03:26:06.421Z,8.48
2022-11-10T03:28:34.230Z,8.40
2022-11-10T03:31:01.118Z,7.63
2022-11-10T03:33:28.032Z,7.97
2022-11-10T03:35:54.900Z,9.10
2022-11-10T03:38:21.800Z,9.10
2022-11-10T03:41:17.639Z,8.98
2022-11-10T03:43:37.964Z,9.60
2022-11-10T03:46:04.924Z,9.10
2022-11-10T03:48:31.800Z,9.30
2022-11-10T03:50:58.798Z,8.55
2022-11-10T03:53:25.817Z,9.85
2022-11-10T03:55:52.771Z,9.57
2022-11-10T03:58:19.658Z,10.13
2022-11-10T04:00:46.570Z,8.43
2022-11-10T04:03:13.503Z,8.55
2022-11-10T04:05:58.947Z,9.55
2022-11-10T04:08:44.409Z,9.95
2022-11-10T04:11:11.270Z,9.07
2022-11-10T04:13:56.730Z,8.47
2022-11-10T04:16:23.663Z,8.77
2022-11-10T04:18:50.573Z,8.65
2022-11-10T04:21:17.561Z,9.90
2022-11-10T04:23:44.432Z,9.88
2022-11-10T04:26:29.016Z,9.30
2022-11-10T04:29:00.821Z,8.95
2022-11-10T04:31:30.976Z,9.32
2022-11-10T04:33:58.978Z,9.05
2022-11-10T04:36:30.296Z,9.35
2022-11-10T04:38:57.457Z,8.80
2022-11-10T04:41:26.671Z,9.35
2022-11-10T04:43:53.779Z,9.35
2022-11-10T04:46:37.044Z,8.57
2022-11-10T04:49:05.863Z,9.18
2022-11-10T04:51:38.690Z,9.50
2022-11-10T04:54:07.325Z,10.02
2022-11-10T04:56:34.806Z,9.38
2022-11-10T04:59:02.209Z,9.40
2022-11-10T05:01:29.953Z,9.13
2022-11-10T05:03:57.150Z,9.10
2022-11-10T05:06:24.571Z,8.68
2022-11-10T05:08:52.024Z,10.25
2022-11-10T05:11:19.194Z,10.18
2022-11-10T05:13:46.721Z,9.70
2022-11-10T05:16:14.467Z,10.27
2022-11-10T05:18:41.771Z,9.18
2022-11-10T05:21:08.722Z,10.10
2022-11-10T05:23:38.835Z,9.45
2022-11-10T05:26:15.360Z,9.43
2022-11-10T05:28:45.444Z,9.73
2022-11-10T05:31:13.110Z,9.38
2022-11-10T05:33:40.675Z,10.68
2022-11-10T05:36:08.657Z,9.20
2022-11-10T05:38:41.917Z,10.20
2022-11-10T05:41:10.530Z,10.23
2022-11-10T05:43:37.507Z,9.55
2022-11-10T05:46:04.479Z,9.75
2022-11-10T05:48:31.342Z,11.18
2022-11-10T05:50:58.224Z,9.65
2022-11-10T05:53:25.438Z,9.70
2022-11-10T05:55:52.591Z,10.40
2022-11-10T05:58:19.490Z,9.60
2022-11-10T06:00:46.447Z,10.13
2022-11-10T06:03:16.333Z,10.73
2022-11-10T06:05:43.565Z,10.23
2022-11-10T06:08:10.608Z,10.93
2022-11-10T06:10:38.716Z,9.07
2022-11-10T06:13:06.263Z,9.40
2022-11-10T06:15:33.606Z,10.25
2022-11-10T06:18:00.572Z,10.53
2022-11-10T06:20:28.046Z,10.73
2022-11-10T06:23:09.161Z,11.73
2022-11-10T06:25:40.243Z,11.13
2022-11-10T06:28:08.892Z,10.57
2022-11-10T06:30:37.920Z,9.77
2022-11-10T06:33:05.197Z,10.55
2022-11-10T06:35:32.770Z,10.48
2022-11-10T06:38:08.027Z,10.32
2022-11-10T06:40:35.042Z,11.80
2022-11-10T06:43:02.863Z,10.43
2022-11-10T06:45:30.023Z,11.77
2022-11-10T06:48:13.597Z,13.35
2022-11-10T06:50:40.480Z,12.75
2022-11-10T06:53:07.415Z,12.10
2022-11-10T06:55:34.290Z,9.33
2022-11-10T06:58:01.214Z,8.90
2022-11-10T07:00:29.600Z,9.27
2022-11-10T07:03:09.694Z,9.13
2022-11-10T07:05:37.432Z,7.70
2022-11-10T07:08:07.691Z,8.10
2022-11-10T07:10:35.584Z,8.85
2022-11-10T07:13:04.826Z,8.18
2022-11-10T07:15:33.565Z,8.70
2022-11-10T07:18:02.476Z,7.72
2022-11-10T07:20:31.113Z,8.07
2022-11-10T07:23:03.957Z,8.20
2022-11-10T07:25:35.406Z,8.07
2022-11-10T07:28:08.039Z,7.80
2022-11-10T07:30:36.551Z,7.10
2022-11-10T07:33:13.140Z,6.10
2022-11-10T07:35:40.970Z,7.50
2022-11-10T07:38:11.696Z,6.70
2022-11-10T07:40:39.257Z,8.27
2022-11-10T07:43:06.216Z,7.68
2022-11-10T07:45:33.491Z,7.43
2022-11-10T07:48:02.023Z,6.82
2022-11-10T07:50:29.565Z,7.85
2022-11-10T07:53:14.163Z,7.30
2022-11-10T07:55:43.851Z,7.30
2022-11-10T07:58:13.737Z,6.87
2022-11-10T08:00:41.747Z,7.80
2022-11-10T08:03:12.282Z,7.22
2022-11-10T08:05:40.007Z,7.43
2022-11-10T08:08:07.659Z,6.82
2022-11-10T08:10:35.915Z,6.80
2022-11-10T08:13:06.485Z,5.78
2022-11-10T08:15:34.466Z,6.15
2022-11-10T08:18:17.915Z,6.18
2022-11-10T08:20:45.405Z,6.47
2022-11-10T08:23:13.075Z,6.07
2022-11-10T08:25:40.408Z,6.80
2022-11-10T08:28:17.238Z,6.10
2022-11-10T08:30:46.884Z,6.30
2022-11-10T08:33:17.036Z,6.32
2022-11-10T08:35:47.186Z,5.87
2022-11-10T08:38:22.686Z,6.28
2022-11-10T08:40:49.913Z,6.57
2022-11-10T08:43:18.490Z,5.47
2022-11-10T08:45:46.174Z,5.75
2022-11-10T08:48:20.368Z,5.83
2022-11-10T08:50:49.512Z,5.28
2022-11-10T08:53:20.991Z,5.20
2022-11-10T08:55:48.859Z,4.75
2022-11-10T08:58:21.532Z,5.43
2022-11-10T09:00:49.245Z,4.87
2022-11-10T09:03:23.619Z,5.25
2022-11-10T09:05:57.716Z,5.25
2022-11-10T09:08:25.997Z,4.70
2022-11-10T09:10:53.288Z,5.55
2022-11-10T09:13:29.063Z,4.77
2022-11-10T09:16:01.325Z,3.88
2022-11-10T09:18:29.012Z,4.88
2022-11-10T09:20:55.991Z,4.80
2022-11-10T09:23:24.978Z,4.90
2022-11-10T09:25:55.585Z,4.20
2022-11-10T09:28:23.671Z,4.70
2022-11-10T09:30:52.194Z,4.88
2022-11-10T09:33:19.616Z,4.25
2022-11-10T09:35:46.831Z,4.25
2022-11-10T09:38:13.999Z,5.60
2022-11-10T09:41:07.365Z,5.00
2022-11-10T09:44:02.001Z,4.43
2022-11-10T09:46:45.449Z,3.80
2022-11-10T09:49:30.629Z,4.68
2022-11-10T09:51:59.621Z,4.60
2022-11-10T09:54:46.206Z,3.75
2022-11-10T09:57:16.899Z,4.15
2022-11-10T09:59:44.779Z,3.63
2022-11-10T10:02:41.036Z,3.42
2022-11-10T10:05:32.010Z,3.50
2022-11-10T10:08:12.047Z,3.75
2022-11-10T10:11:03.661Z,4.05
2022-11-10T10:14:18.794Z,3.50
2022-11-10T10:17:00.656Z,3.47
2022-11-10T10:20:05.037Z,3.97
2022-11-10T10:23:05.068Z,3.63
2022-11-10T10:25:32.897Z,3.90
2022-11-10T10:28:29.112Z,3.53
2022-11-10T10:31:26.656Z,4.18
2022-11-10T10:33:54.603Z,2.97
2022-11-10T10:36:39.458Z,3.58
2022-11-10T10:39:15.488Z,3.67
2022-11-10T10:41:45.869Z,3.50
2022-11-10T10:44:19.021Z,3.65
2022-11-10T10:47:01.127Z,2.97
2022-11-10T10:49:31.185Z,3.08
2022-11-10T10:52:13.923Z,3.47
2022-11-10T10:54:41.544Z,3.17
2022-11-10T10:57:30.294Z,3.70
2022-11-10T11:00:23.221Z,3.57
2022-11-10T11:03:07.914Z,3.47
2022-11-10T11:05:34.798Z,3.50
2022-11-10T11:08:02.963Z,3.60
2022-11-10T11:10:35.551Z,3.20
2022-11-10T11:13:26.758Z,3.30
2022-11-10T11:16:07.159Z,2.78
2022-11-10T11:18:35.725Z,3.13
2022-11-10T11:21:34.624Z,3.38
2022-11-10T11:24:38.087Z,3.83
2022-11-10T11:27:36.185Z,3.37
2022-11-10T11:30:10.164Z,3.33
2022-11-10T11:32:49.216Z,3.20
2022-11-10T11:35:31.436Z,3.60
2022-11-10T11:38:33.347Z,4.25
2022-11-10T11:41:37.211Z,3.10
2022-11-10T11:44:21.231Z,3.10
2022-11-10T11:47:18.160Z,3.33
2022-11-10T11:50:07.171Z,3.85
2022-11-10T11:52:59.591Z,3.42
2022-11-10T11:56:11.390Z,3.40
2022-11-10T11:59:27.404Z,3.65
2022-11-10T12:02:28.350Z,3.10
2022-11-10T12:05:26.619Z,3.40
2022-11-10T12:08:09.339Z,3.60
2022-11-10T12:11:22.427Z,3.37
2022-11-10T12:14:11.723Z,3.13
2022-11-10T12:16:39.766Z,3.88
2022-11-10T12:19:39.696Z,3.40
2022-11-10T12:22:46.497Z,3.80
2022-11-10T12:25:31.414Z,3.27
2022-11-10T12:28:27.599Z,3.67
2022-11-10T12:31:02.495Z,3.55
2022-11-10T12:33:41.906Z,3.97
2022-11-10T12:36:19.375Z,3.65
2022-11-10T12:39:03.650Z,3.23
2022-11-10T12:41:47.276Z,3.08
2022-11-10T12:44:39.790Z,3.20
2022-11-10T12:47:14.831Z,3.05
2022-11-10T12:50:25.947Z,3.63
2022-11-10T12:53:03.205Z,3.20
2022-11-10T12:55:47.298Z,2.72
2022-11-10T12:58:15.525Z,3.45
2022-11-10T13:00:57.976Z,2.85
2022-11-10T13:03:31.860Z,3.78
2022-11-10T13:06:36.602Z,2.72
2022-11-10T13:09:33.131Z,3.05
2022-11-10T13:12:22.112Z,2.90
2022-11-10T13:15:47.524Z,3.03
2022-11-10T13:18:34.316Z,2.93
2022-11-10T13:21:51.999Z,2.80
2022-11-10T13:24:42.332Z,2.42
2022-11-10T13:27:51.543Z,2.90
2022-11-10T13:30:48.658Z,3.72
2022-11-10T13:33:38.051Z,4.00
2022-11-10T13:36:57.047Z,3.40
2022-11-10T13:39:45.873Z,2.90
2022-11-10T13:42:31.948Z,3.22
2022-11-10T13:45:36.937Z,3.08
2022-11-10T13:48:45.107Z,2.97
2022-11-10T13:51:43.896Z,2.90
2022-11-10T13:54:46.506Z,2.83
2022-11-10T13:57:37.317Z,2.63
2022-11-10T14:00:34.023Z,2.47
2022-11-10T14:03:55.345Z,2.80
2022-11-10T14:06:48.664Z,2.25
2022-11-10T14:09:42.181Z,2.60
2022-11-10T14:12:48.313Z,3.67
2022-11-10T14:15:46.470Z,2.90
2022-11-10T14:18:45.578Z,2.70
2022-11-10T14:21:53.962Z,2.60
2022-11-10T14:25:04.419Z,2.47
2022-11-10T14:27:56.715Z,2.92
2022-11-10T14:30:52.286Z,2.70
2022-11-10T14:33:38.975Z,2.33
2022-11-10T14:36:25.841Z,2.67
2022-11-10T14:39:17.079Z,2.72
2022-11-10T14:42:05.943Z,2.92
2022-11-10T14:45:26.634Z,3.22
2022-11-10T14:48:23.704Z,2.93
2022-11-10T14:51:19.525Z,2.67
2022-11-10T14:54:09.996Z,2.92
2022-11-10T14:56:57.040Z,2.35
2022-11-10T14:59:43.129Z,3.10
2022-11-10T15:02:29.634Z,2.60
2022-11-10T15:05:16.339Z,2.40
2022-11-10T15:08:04.409Z,3.00
2022-11-10T15:10:53.144Z,2.83
2022-11-10T15:13:40.300Z,2.50
2022-11-10T15:16:36.041Z,2.97
2022-11-10T15:19:28.923Z,2.38
2022-11-10T15:22:35.525Z,3.08
2022-11-10T15:25:35.427Z,2.50
2022-11-10T15:28:36.930Z,2.95
2022-11-10T15:31:31.163Z,2.90
2022-11-10T15:34:53.350Z,2.35
2022-11-10T15:37:39.552Z,3.22
2022-11-10T15:40:35.167Z,4.25
2022-11-10T15:43:26.432Z,4.00
2022-11-10T15:46:21.270Z,3.60
2022-11-10T15:49:20.766Z,3.70
2022-11-10T15:52:21.382Z,3.38
2022-11-10T15:55:20.762Z,3.03
2022-11-10T15:58:15.562Z,3.20
2022-11-10T16:01:02.443Z,3.30
2022-11-10T16:03:48.493Z,3.10
2022-11-10T16:06:34.886Z,2.95
2022-11-10T16:09:20.964Z,3.10
2022-11-10T16:12:15.040Z,3.20
2022-11-10T16:15:01.151Z,3.07
2022-11-10T16:17:47.236Z,3.42
2022-11-10T16:20:33.261Z,3.45
2022-11-10T16:23:19.979Z,3.63
2022-11-10T16:26:07.494Z,3.97
2022-11-10T16:28:53.990Z,3.60
2022-11-10T16:31:40.050Z,3.50
2022-11-10T16:34:26.122Z,3.95
2022-11-10T16:37:13.437Z,3.58
2022-11-10T16:39:59.433Z,3.30
2022-11-10T16:42:46.248Z,3.63
2022-11-10T16:45:32.619Z,3.40
2022-11-10T16:48:26.485Z,3.28
2022-11-10T16:51:14.146Z,3.25
2022-11-10T16:54:00.255Z,2.92
2022-11-10T16:56:46.818Z,3.60
2022-11-10T16:59:32.811Z,4.20
2022-11-10T17:02:30.726Z,3.42
2022-11-10T17:05:17.013Z,4.00
2022-11-10T17:08:04.446Z,3.40
2022-11-10T17:10:52.137Z,3.60
2022-11-10T17:13:38.558Z,3.63
2022-11-10T17:16:33.068Z,3.10
2022-11-10T17:19:26.536Z,3.40
2022-11-10T17:22:19.627Z,3.00
2022-11-10T17:25:06.344Z,3.07
2022-11-10T17:27:53.189Z,3.70
2022-11-10T17:30:40.114Z,3.58
2022-11-10T17:33:26.631Z,3.30
2022-11-10T17:36:21.230Z,3.65
2022-11-10T17:39:13.090Z,4.37
2022-11-10T17:42:00.319Z,4.22
2022-11-10T17:44:46.758Z,4.15
2022-11-10T17:47:32.943Z,4.80
2022-11-10T17:50:21.510Z,3.75
2022-11-10T17:53:25.997Z,3.13
2022-11-10T17:56:12.502Z,2.95
2022-11-10T17:58:58.832Z,4.63
2022-11-10T18:01:45.267Z,5.53
2022-11-10T18:04:31.786Z,3.92
2022-11-10T18:07:18.087Z,3.57
2022-11-10T18:10:04.839Z,4.32
2022-11-10T18:12:51.104Z,3.50
2022-11-10T18:15:37.066Z,3.08
2022-11-10T18:18:23.123Z,3.97
2022-11-10T18:21:10.315Z,4.30
2022-11-10T18:23:56.643Z,4.00
2022-11-10T18:26:42.771Z,4.28
2022-11-10T18:29:28.962Z,5.30
2022-11-10T18:32:15.285Z,4.22
2022-11-10T18:35:01.548Z,3.20
2022-11-10T18:37:47.867Z,2.85
2022-11-10T18:40:34.272Z,3.42
2022-11-10T18:43:20.575Z,3.60
2022-11-10T18:46:06.953Z,3.13
2022-11-10T18:48:53.037Z,3.47
2022-11-10T18:51:39.597Z,3.58
2022-11-10T18:54:26.969Z,3.35
2022-11-10T18:57:16.299Z,3.30
2022-11-10T19:00:04.951Z,4.15
2022-11-10T19:02:51.101Z,3.40
2022-11-10T19:05:38.525Z,3.70
2022-11-10T19:08:26.593Z,3.33
2022-11-10T19:11:16.226Z,4.22
2022-11-10T19:14:02.540Z,3.78
2022-11-10T19:16:48.960Z,3.77
2022-11-10T19:19:35.130Z,4.65
2022-11-10T19:22:21.382Z,5.05
2022-11-10T19:25:09.301Z,4.80
2022-11-10T19:27:57.185Z,4.60
2022-11-10T19:30:43.526Z,4.60
2022-11-10T19:33:35.319Z,5.70
2022-11-10T19:36:27.413Z,4.28
2022-11-10T19:39:13.542Z,3.60
2022-11-10T19:41:59.555Z,3.58
2022-11-10T19:44:45.719Z,4.43
2022-11-10T19:47:31.763Z,3.92
2022-11-10T19:50:18.322Z,4.25
2022-11-10T19:53:04.664Z,4.60
2022-11-10T19:55:51.012Z,4.30
2022-11-10T19:58:39.255Z,5.20
2022-11-10T20:01:26.364Z,4.63
2022-11-10T20:04:13.817Z,4.60
2022-11-10T20:07:19.002Z,4.43
2022-11-10T20:10:06.122Z,4.80
2022-11-10T20:12:52.772Z,5.37
2022-11-10T20:15:43.484Z,4.78
2022-11-10T20:18:29.965Z,4.47
2022-11-10T20:21:20.722Z,4.03
2022-11-10T20:24:06.807Z,4.28
2022-11-10T20:26:52.827Z,4.90
2022-11-10T20:29:38.941Z,5.07
2022-11-10T20:32:26.349Z,5.15
2022-11-10T20:35:12.269Z,5.13
2022-11-10T20:37:58.251Z,5.60
2022-11-10T20:40:45.366Z,4.97
2022-11-10T20:43:34.970Z,5.47
2022-11-10T20:46:48.061Z,5.50
2022-11-10T20:49:28.751Z,5.93
2022-11-10T20:52:15.247Z,5.35
2022-11-10T20:55:01.469Z,5.50
2022-11-10T20:57:47.880Z,5.68
2022-11-10T21:00:34.130Z,6.25
2022-11-10T21:03:22.180Z,5.38
2022-11-10T21:06:09.553Z,5.68
2022-11-10T21:08:56.888Z,6.03
2022-11-10T21:12:01.737Z,5.22
2022-11-10T21:14:47.901Z,4.93
2022-11-10T21:17:33.889Z,5.70
2022-11-10T21:20:20.129Z,5.05
2022-11-10T21:23:06.124Z,5.70
2022-11-10T21:25:54.366Z,5.65
2022-11-10T21:28:40.627Z,5.78
2022-11-10T21:31:26.938Z,5.80
2022-11-10T21:34:13.942Z,6.40
2022-11-10T21:37:00.151Z,6.30
2022-11-10T21:39:46.133Z,6.93
2022-11-10T21:42:35.442Z,6.63
2022-11-10T21:45:22.557Z,6.95
2022-11-10T21:48:09.285Z,6.57
2022-11-10T21:51:06.955Z,7.20
2022-11-10T21:53:53.387Z,7.07
2022-11-10T21:56:39.914Z,7.07
2022-11-10T21:59:26.153Z,7.32
2022-11-10T22:02:12.230Z,7.38
2022-11-10T22:04:58.223Z,7.47
2022-11-10T22:07:44.427Z,7.35
2022-11-10T22:10:49.638Z,7.75
2022-11-10T22:13:54.759Z,7.85
2022-11-10T22:17:09.477Z,8.07
2022-11-10T22:19:55.835Z,8.03
2022-11-10T22:22:42.196Z,8.93
2022-11-10T22:25:28.351Z,8.23
2022-11-10T22:28:14.398Z,8.27
2022-11-10T22:31:03.817Z,8.82
2022-11-10T22:33:49.819Z,9.17
2022-11-10T22:36:36.348Z,8.68
2022-11-10T22:39:22.536Z,8.50
2022-11-10T22:42:31.374Z,9.10
2022-11-10T22:45:17.742Z,9.23
2022-11-10T22:48:22.332Z,8.80
2022-11-10T22:51:08.620Z,8.95
2022-11-10T22:53:54.753Z,9.80
2022-11-10T22:56:41.984Z,8.27
2022-11-10T22:59:28.377Z,8.38
2022-11-10T23:02:14.700Z,8.43
2022-11-10T23:05:00.815Z,8.57
2022-11-10T23:07:46.859Z,9.40
2022-11-10T23:10:32.876Z,9.02
2022-11-10T23:13:19.062Z,9.38
2022-11-10T23:16:12.126Z,10.03
2022-11-10T23:18:59.170Z,8.77
2022-11-10T23:21:45.336Z,8.68
2022-11-10T23:24:31.833Z,8.75
2022-11-10T23:27:17.931Z,9.57
2022-11-10T23:30:04.314Z,9.87
2022-11-10T23:32:50.438Z,9.57
2022-11-10T23:35:36.531Z,10.25
2022-11-10T23:38:22.827Z,9.48
2022-11-10T23:41:14.564Z,9.60
2022-11-10T23:44:00.660Z,9.93
2022-11-10T23:46:46.772Z,11.10
2022-11-10T23:49:32.992Z,9.73
2022-11-10T23:52:18.934Z,10.30
2022-11-10T23:55:05.504Z,9.93
2022-11-10T23:57:51.723Z,10.30
